createdAt,value
2017-08-19T00:00:35.031Z,1007.26
2017-08-19T00:01:35.010Z,1007.25
2017-08-19T00:02:34.985Z,1007.23
2017-08-19T00:03:34.966Z,1007.24
2017-08-19T00:04:34.947Z,1007.28
2017-08-19T00:05:34.923Z,1007.23
2017-08-19T00:06:34.900Z,1007.26
2017-08-19T00:07:34.878Z,1007.26
2017-08-19T00:08:34.857Z,1007.29
2017-08-19T00:09:34.836Z,1007.29
2017-08-19T00:10:34.813Z,1007.31
2017-08-19T00:11:34.790Z,1007.35
2017-08-19T00:12:34.769Z,1007.3
2017-08-19T00:13:34.751Z,1007.29
2017-08-19T00:14:34.723Z,1007.3
2017-08-19T00:15:34.705Z,1007.3
2017-08-19T00:16:34.683Z,1007.28
2017-08-19T00:17:34.661Z,1007.32
2017-08-19T00:18:34.638Z,1007.32
2017-08-19T00:19:34.616Z,1007.31
2017-08-19T00:20:34.597Z,1007.31
2017-08-19T00:21:34.573Z,1007.36
2017-08-19T00:22:34.600Z,1007.35
2017-08-19T00:23:34.529Z,1007.34
2017-08-19T00:24:34.508Z,1007.39
2017-08-19T00:25:34.484Z,1007.35
2017-08-19T00:26:34.460Z,1007.34
2017-08-19T00:27:34.440Z,1007.38
2017-08-19T00:28:34.419Z,1007.35
2017-08-19T00:29:34.406Z,1007.4
2017-08-19T00:30:34.383Z,1007.43
2017-08-19T00:31:34.353Z,1007.41
2017-08-19T00:32:34.330Z,1007.47
2017-08-19T00:33:34.307Z,1007.42
2017-08-19T00:34:34.285Z,1007.42
2017-08-19T00:35:34.268Z,1007.42
2017-08-19T00:36:34.241Z,1007.43
2017-08-19T00:37:34.220Z,1007.46
2017-08-19T00:38:34.199Z,1007.45
2017-08-19T00:39:34.175Z,1007.51
2017-08-19T00:40:34.153Z,1007.48
2017-08-19T00:41:34.134Z,1007.48
2017-08-19T00:42:34.108Z,1007.47
2017-08-19T00:43:34.092Z,1007.51
2017-08-19T00:44:34.065Z,1007.55
2017-08-19T00:45:34.044Z,1007.57
2017-08-19T00:46:34.020Z,1007.59
2017-08-19T00:47:34.002Z,1007.58
2017-08-19T00:48:33.979Z,1007.6
2017-08-19T00:49:33.961Z,1007.65
2017-08-19T00:50:33.951Z,1007.64
2017-08-19T00:51:33.919Z,1007.62
2017-08-19T00:52:33.890Z,1007.66
2017-08-19T00:53:33.869Z,1007.66
2017-08-19T00:54:33.844Z,1007.69
2017-08-19T00:55:33.825Z,1007.6
2017-08-19T00:56:33.805Z,1007.7
2017-08-19T00:57:33.780Z,1007.7
2017-08-19T00:58:33.758Z,1007.67
2017-08-19T00:59:33.735Z,1007.67
2017-08-19T01:00:33.716Z,1007.67
2017-08-19T01:01:33.692Z,1007.71
2017-08-19T01:02:33.670Z,1007.65
2017-08-19T01:03:33.646Z,1007.66
2017-08-19T01:04:33.625Z,1007.72
2017-08-19T01:05:33.604Z,1007.74
2017-08-19T01:06:33.581Z,1007.74
2017-08-19T01:07:33.560Z,1007.8
2017-08-19T01:08:33.538Z,1007.78
2017-08-19T01:09:33.515Z,1007.79
2017-08-19T01:10:33.494Z,1007.87
2017-08-19T01:11:33.473Z,1007.84
2017-08-19T01:12:33.449Z,1007.78
2017-08-19T01:13:33.428Z,1007.76
2017-08-19T01:14:33.406Z,1007.79
2017-08-19T01:15:33.384Z,1007.77
2017-08-19T01:16:33.364Z,1007.76
2017-08-19T01:17:33.343Z,1007.78
2017-08-19T01:18:33.315Z,1007.76
2017-08-19T01:19:33.295Z,1007.77
2017-08-19T01:20:33.273Z,1007.79
2017-08-19T01:21:33.255Z,1007.79
2017-08-19T01:22:33.229Z,1007.79
2017-08-19T01:23:33.206Z,1007.8
2017-08-19T01:24:33.185Z,1007.83
2017-08-19T01:25:33.164Z,1007.82
2017-08-19T01:26:33.142Z,1007.85
2017-08-19T01:27:33.121Z,1007.86
2017-08-19T01:28:33.102Z,1007.88
2017-08-19T01:29:33.075Z,1007.94
2017-08-19T01:30:33.052Z,1007.9
2017-08-19T01:31:33.032Z,1007.95
2017-08-19T01:32:33.010Z,1007.96
2017-08-19T01:33:32.988Z,1007.95
2017-08-19T01:34:32.963Z,1007.94
2017-08-19T01:35:32.942Z,1007.94
2017-08-19T01:36:32.921Z,1007.93
2017-08-19T01:37:32.898Z,1007.95
2017-08-19T01:38:32.876Z,1008
2017-08-19T01:39:32.854Z,1007.92
2017-08-19T01:40:32.835Z,1007.91
2017-08-19T01:41:32.818Z,1007.9
2017-08-19T01:42:32.789Z,1007.91
2017-08-19T01:43:32.766Z,1007.9
2017-08-19T01:44:32.745Z,1007.89
2017-08-19T01:45:32.725Z,1007.86
2017-08-19T01:46:32.702Z,1007.88
2017-08-19T01:47:32.677Z,1007.83
2017-08-19T01:48:32.658Z,1007.85
2017-08-19T01:49:32.635Z,1007.82
2017-08-19T01:50:32.613Z,1007.86
2017-08-19T01:51:32.592Z,1007.82
2017-08-19T01:52:32.570Z,1007.85
2017-08-19T01:53:32.544Z,1007.87
2017-08-19T01:54:32.522Z,1007.8
2017-08-19T01:55:32.502Z,1007.86
2017-08-19T01:56:32.481Z,1007.86
2017-08-19T01:57:32.459Z,1007.9
2017-08-19T01:58:32.434Z,1007.91
2017-08-19T01:59:32.414Z,1007.89
2017-08-19T02:00:32.393Z,1007.92
2017-08-19T02:01:32.370Z,1007.87
2017-08-19T02:02:32.355Z,1007.9
2017-08-19T02:03:32.325Z,1007.94
2017-08-19T02:04:32.305Z,1007.93
2017-08-19T02:05:32.281Z,1007.91
2017-08-19T02:06:32.258Z,1007.9
2017-08-19T02:07:32.237Z,1007.89
2017-08-19T02:08:32.213Z,1007.92
2017-08-19T02:09:32.205Z,1007.89
2017-08-19T02:10:32.171Z,1007.89
2017-08-19T02:11:32.151Z,1007.87
2017-08-19T02:12:32.126Z,1007.89
2017-08-19T02:13:32.104Z,1007.85
2017-08-19T02:14:32.085Z,1007.9
2017-08-19T02:15:32.060Z,1007.81
2017-08-19T02:16:32.038Z,1007.88
2017-08-19T02:17:32.017Z,1007.79
2017-08-19T02:18:31.997Z,1007.84
2017-08-19T02:19:31.974Z,1007.76
2017-08-19T02:20:31.955Z,1007.79
2017-08-19T02:21:31.930Z,1007.84
2017-08-19T02:22:31.905Z,1007.82
2017-08-19T02:23:31.883Z,1007.83
2017-08-19T02:24:31.862Z,1007.82
2017-08-19T02:25:31.839Z,1007.82
2017-08-19T02:26:31.818Z,1007.83
2017-08-19T02:27:31.794Z,1007.79
2017-08-19T02:28:31.775Z,1007.81
2017-08-19T02:29:31.755Z,1007.82
2017-08-19T02:30:31.731Z,1007.79
2017-08-19T02:31:31.708Z,1007.83
2017-08-19T02:32:31.684Z,1007.83
2017-08-19T02:33:31.662Z,1007.82
2017-08-19T02:34:31.638Z,1007.85
2017-08-19T02:35:31.619Z,1007.8
2017-08-19T02:36:31.596Z,1007.79
2017-08-19T02:37:31.574Z,1007.81
2017-08-19T02:38:31.551Z,1007.77
2017-08-19T02:39:31.530Z,1007.83
2017-08-19T02:40:31.509Z,1007.75
2017-08-19T02:41:31.486Z,1007.79
2017-08-19T02:42:31.463Z,1007.83
2017-08-19T02:43:31.441Z,1007.81
2017-08-19T02:44:31.420Z,1007.82
2017-08-19T02:45:31.399Z,1007.79
2017-08-19T02:46:31.379Z,1007.86
2017-08-19T02:47:31.356Z,1007.84
2017-08-19T02:48:31.335Z,1007.8
2017-08-19T02:49:31.308Z,1007.79
2017-08-19T02:50:31.286Z,1007.82
2017-08-19T02:51:31.267Z,1007.78
2017-08-19T02:52:31.242Z,1007.81
2017-08-19T02:53:31.218Z,1007.8
2017-08-19T02:54:31.198Z,1007.8
2017-08-19T02:55:31.176Z,1007.79
2017-08-19T02:56:31.156Z,1007.82
2017-08-19T02:57:31.130Z,1007.81
2017-08-19T02:58:31.108Z,1007.85
2017-08-19T02:59:31.088Z,1007.81
2017-08-19T03:00:31.063Z,1007.86
2017-08-19T03:01:31.043Z,1007.86
2017-08-19T03:02:31.022Z,1007.89
2017-08-19T03:03:30.999Z,1007.85
2017-08-19T03:04:30.977Z,1007.86
2017-08-19T03:05:30.954Z,1007.87
2017-08-19T03:06:30.933Z,1007.88
2017-08-19T03:07:30.910Z,1007.87
2017-08-19T03:08:30.892Z,1007.82
2017-08-19T03:09:30.864Z,1007.81
2017-08-19T03:10:30.844Z,1007.84
2017-08-19T03:11:30.821Z,1007.88
2017-08-19T03:12:30.802Z,1007.85
2017-08-19T03:13:30.778Z,1007.84
2017-08-19T03:14:30.758Z,1007.92
2017-08-19T03:15:30.734Z,1007.89
2017-08-19T03:16:30.712Z,1007.86
2017-08-19T03:17:30.689Z,1007.87
2017-08-19T03:18:30.665Z,1007.87
2017-08-19T03:19:30.646Z,1007.88
2017-08-19T03:20:30.622Z,1007.88
2017-08-19T03:21:30.603Z,1007.91
2017-08-19T03:22:30.578Z,1007.89
2017-08-19T03:23:30.557Z,1007.92
2017-08-19T03:24:30.534Z,1007.91
2017-08-19T03:25:30.510Z,1007.95
2017-08-19T03:26:30.489Z,1007.95
2017-08-19T03:27:30.470Z,1007.96
2017-08-19T03:28:30.446Z,1007.99
2017-08-19T03:29:30.424Z,1007.93
2017-08-19T03:30:30.400Z,1007.96
2017-08-19T03:31:30.379Z,1007.99
2017-08-19T03:32:30.410Z,1007.99
2017-08-19T03:33:30.335Z,1007.95
2017-08-19T03:34:30.313Z,1007.93
2017-08-19T03:35:30.292Z,1007.93
2017-08-19T03:36:30.269Z,1007.93
2017-08-19T03:37:30.249Z,1007.93
2017-08-19T03:38:30.222Z,1007.94
2017-08-19T03:39:30.203Z,1007.94
2017-08-19T03:40:30.178Z,1007.96
2017-08-19T03:41:30.157Z,1007.96
2017-08-19T03:42:30.133Z,1008
2017-08-19T03:43:30.112Z,1007.97
2017-08-19T03:44:30.091Z,1007.98
2017-08-19T03:45:30.070Z,1007.94
2017-08-19T03:46:30.051Z,1007.94
2017-08-19T03:47:30.021Z,1007.97
2017-08-19T03:48:30.000Z,1008.05
2017-08-19T03:49:29.979Z,1008
2017-08-19T03:50:29.956Z,1008.05
2017-08-19T03:51:29.935Z,1008.04
2017-08-19T03:52:29.911Z,1007.98
2017-08-19T03:53:29.890Z,1008.05
2017-08-19T03:54:29.867Z,1008.08
2017-08-19T03:55:29.846Z,1008.04
2017-08-19T03:56:29.822Z,1008.06
2017-08-19T03:57:29.801Z,1008.1
2017-08-19T03:58:29.781Z,1008.04
2017-08-19T03:59:29.755Z,1008.09
2017-08-19T04:00:29.731Z,1008.1
2017-08-19T04:01:29.711Z,1008.11
2017-08-19T04:02:29.689Z,1008.08
2017-08-19T04:03:29.666Z,1008.12
2017-08-19T04:04:29.645Z,1008.13
2017-08-19T04:05:29.624Z,1008.12
2017-08-19T04:06:29.604Z,1008.05
2017-08-19T04:07:29.579Z,1008.1
2017-08-19T04:08:29.556Z,1008.1
2017-08-19T04:09:29.535Z,1008.1
2017-08-19T04:10:29.511Z,1008.07
2017-08-19T04:11:29.490Z,1008.09
2017-08-19T04:12:29.467Z,1008.06
2017-08-19T04:13:29.444Z,1008.03
2017-08-19T04:14:29.421Z,1008.06
2017-08-19T04:15:29.401Z,1008.07
2017-08-19T04:16:29.378Z,1008.03
2017-08-19T04:17:29.357Z,1008.01
2017-08-19T04:18:29.384Z,1008.01
2017-08-19T04:19:29.310Z,1008.03
2017-08-19T04:20:29.289Z,1007.99
2017-08-19T04:21:29.266Z,1008
2017-08-19T04:22:29.459Z,1008.04
2017-08-19T04:23:29.245Z,1008.04
2017-08-19T04:24:29.200Z,1008.07
2017-08-19T04:25:29.180Z,1008.02
2017-08-19T04:26:29.156Z,1008.01
2017-08-19T04:27:29.133Z,1008.05
2017-08-19T04:28:29.112Z,1008
2017-08-19T04:29:29.088Z,1008.01
2017-08-19T04:30:29.067Z,1008.03
2017-08-19T04:31:29.046Z,1008.07
2017-08-19T04:32:29.021Z,1008.07
2017-08-19T04:33:29.002Z,1008.09
2017-08-19T04:34:28.978Z,1008.09
2017-08-19T04:35:28.955Z,1008.11
2017-08-19T04:36:28.934Z,1008.08
2017-08-19T04:37:28.913Z,1008.1
2017-08-19T04:38:28.889Z,1008.12
2017-08-19T04:39:28.866Z,1008.06
2017-08-19T04:40:28.843Z,1008.09
2017-08-19T04:41:28.823Z,1008.1
2017-08-19T04:42:28.799Z,1008.13
2017-08-19T04:43:28.777Z,1008.15
2017-08-19T04:44:28.756Z,1008.16
2017-08-19T04:45:28.737Z,1008.23
2017-08-19T04:46:28.713Z,1008.22
2017-08-19T04:47:28.739Z,1008.23
2017-08-19T04:48:28.670Z,1008.22
2017-08-19T04:49:28.648Z,1008.22
2017-08-19T04:50:28.622Z,1008.23
2017-08-19T04:51:28.603Z,1008.25
2017-08-19T04:52:28.582Z,1008.27
2017-08-19T04:53:28.557Z,1008.25
2017-08-19T04:54:28.536Z,1008.28
2017-08-19T04:55:28.512Z,1008.27
2017-08-19T04:56:28.493Z,1008.31
2017-08-19T04:57:28.467Z,1008.31
2017-08-19T04:58:28.445Z,1008.29
2017-08-19T04:59:28.427Z,1008.28
2017-08-19T05:00:28.402Z,1008.3
2017-08-19T05:01:28.595Z,1008.3
2017-08-19T05:02:28.360Z,1008.31
2017-08-19T05:03:28.343Z,1008.32
2017-08-19T05:04:28.337Z,1008.33
2017-08-19T05:05:28.294Z,1008.28
2017-08-19T05:06:28.273Z,1008.31
2017-08-19T05:07:28.250Z,1008.32
2017-08-19T05:08:28.251Z,1008.3
2017-08-19T05:09:28.206Z,1008.35
2017-08-19T05:10:28.181Z,1008.34
2017-08-19T05:11:28.165Z,1008.35
2017-08-19T05:12:28.144Z,1008.39
2017-08-19T05:13:28.121Z,1008.35
2017-08-19T05:14:28.101Z,1008.37
2017-08-19T05:15:28.079Z,1008.39
2017-08-19T05:16:28.056Z,1008.33
2017-08-19T05:17:28.041Z,1008.41
2017-08-19T05:18:28.014Z,1008.37
2017-08-19T05:19:27.994Z,1008.43
2017-08-19T05:20:27.974Z,1008.41
2017-08-19T05:21:27.952Z,1008.46
2017-08-19T05:22:27.928Z,1008.47
2017-08-19T05:23:27.910Z,1008.44
2017-08-19T05:24:27.888Z,1008.48
2017-08-19T05:25:27.868Z,1008.49
2017-08-19T05:26:27.845Z,1008.52
2017-08-19T05:27:27.829Z,1008.49
2017-08-19T05:28:27.806Z,1008.5
2017-08-19T05:29:27.783Z,1008.51
2017-08-19T05:30:27.764Z,1008.48
2017-08-19T05:31:27.743Z,1008.54
2017-08-19T05:32:27.727Z,1008.5
2017-08-19T05:33:27.703Z,1008.53
2017-08-19T05:34:27.681Z,1008.55
2017-08-19T05:35:27.660Z,1008.55
2017-08-19T05:36:27.645Z,1008.52
2017-08-19T05:37:27.621Z,1008.5
2017-08-19T05:38:27.601Z,1008.46
2017-08-19T05:39:27.578Z,1008.49
2017-08-19T05:40:27.562Z,1008.48
2017-08-19T05:41:27.540Z,1008.45
2017-08-19T05:42:27.519Z,1008.49
2017-08-19T05:43:27.501Z,1008.51
2017-08-19T05:44:27.487Z,1008.56
2017-08-19T05:45:27.465Z,1008.55
2017-08-19T05:46:27.444Z,1008.5
2017-08-19T05:47:27.421Z,1008.59
2017-08-19T05:48:27.404Z,1008.55
2017-08-19T05:49:27.384Z,1008.55
2017-08-19T05:50:27.360Z,1008.51
2017-08-19T05:51:27.343Z,1008.54
2017-08-19T05:52:27.327Z,1008.52
2017-08-19T05:53:27.302Z,1008.53
2017-08-19T05:54:27.285Z,1008.45
2017-08-19T05:55:27.270Z,1008.47
2017-08-19T05:56:27.247Z,1008.46
2017-08-19T05:57:27.240Z,1008.43
2017-08-19T05:58:27.211Z,1008.38
2017-08-19T05:59:27.190Z,1008.37
2017-08-19T06:00:27.172Z,1008.39
2017-08-19T06:01:27.153Z,1008.38
2017-08-19T06:02:27.136Z,1008.33
2017-08-19T06:03:27.115Z,1008.32
2017-08-19T06:04:27.095Z,1008.28
2017-08-19T06:05:27.079Z,1008.28
2017-08-19T06:06:27.059Z,1008.27
2017-08-19T06:07:27.043Z,1008.34
2017-08-19T06:08:27.025Z,1008.27
2017-08-19T06:09:27.006Z,1008.3
2017-08-19T06:10:26.987Z,1008.26
2017-08-19T06:11:26.969Z,1008.29
2017-08-19T06:12:26.953Z,1008.29
2017-08-19T06:13:26.931Z,1008.27
2017-08-19T06:14:26.913Z,1008.25
2017-08-19T06:15:26.899Z,1008.32
2017-08-19T06:16:26.877Z,1008.28
2017-08-19T06:17:26.866Z,1008.23
2017-08-19T06:18:26.844Z,1008.28
2017-08-19T06:19:26.827Z,1008.31
2017-08-19T06:20:26.809Z,1008.23
2017-08-19T06:21:26.791Z,1008.25
2017-08-19T06:22:27.061Z,1008.25
2017-08-19T06:23:27.189Z,1008.25
2017-08-19T06:24:27.161Z,1008.32
2017-08-19T06:25:27.121Z,1008.33
2017-08-19T06:26:27.043Z,1008.36
2017-08-19T06:27:27.023Z,1008.35
2017-08-19T06:28:27.089Z,1008.4
2017-08-19T06:29:27.070Z,1008.39
2017-08-19T06:30:27.050Z,1008.47
2017-08-19T06:31:26.617Z,1008.51
2017-08-19T06:32:26.598Z,1008.58
2017-08-19T06:33:26.583Z,1008.58
2017-08-19T06:34:26.584Z,1008.59
2017-08-19T06:35:26.548Z,1008.6
2017-08-19T06:36:26.582Z,1008.66
2017-08-19T06:37:26.518Z,1008.57
2017-08-19T06:38:26.501Z,1008.57
2017-08-19T06:39:26.486Z,1008.53
2017-08-19T06:40:26.469Z,1008.52
2017-08-19T06:41:26.473Z,1008.55
2017-08-19T06:42:26.438Z,1008.55
2017-08-19T06:43:26.422Z,1008.53
2017-08-19T06:44:26.404Z,1008.5
2017-08-19T06:45:26.391Z,1008.59
2017-08-19T06:46:26.374Z,1008.58
2017-08-19T06:47:26.361Z,1008.7
2017-08-19T06:48:26.343Z,1008.64
2017-08-19T06:49:26.324Z,1008.51
2017-08-19T06:50:26.310Z,1008.61
2017-08-19T06:51:26.290Z,1008.67
2017-08-19T06:52:26.272Z,1008.66
2017-08-19T06:53:26.305Z,1008.69
2017-08-19T06:54:26.240Z,1008.63
2017-08-19T06:55:26.224Z,1008.69
2017-08-19T06:56:26.200Z,1008.64
2017-08-19T06:57:26.183Z,1008.68
2017-08-19T06:58:26.166Z,1008.66
2017-08-19T06:59:26.149Z,1008.69
2017-08-19T07:00:26.134Z,1008.73
2017-08-19T07:01:26.115Z,1008.78
2017-08-19T07:02:26.096Z,1008.72
2017-08-19T07:03:26.078Z,1008.62
2017-08-19T07:04:26.059Z,1008.68
2017-08-19T07:05:26.045Z,1008.69
2017-08-19T07:06:26.046Z,1008.72
2017-08-19T07:07:26.005Z,1008.71
2017-08-19T07:08:25.986Z,1008.65
2017-08-19T07:09:25.973Z,1008.75
2017-08-19T07:10:25.954Z,1008.71
2017-08-19T07:11:25.934Z,1008.68
2017-08-19T07:12:25.914Z,1008.65
2017-08-19T07:13:25.896Z,1008.61
2017-08-19T07:14:25.877Z,1008.7
2017-08-19T07:15:25.860Z,1008.65
2017-08-19T07:16:25.839Z,1008.62
2017-08-19T07:17:25.822Z,1008.63
2017-08-19T07:18:25.806Z,1008.67
2017-08-19T07:19:25.781Z,1008.59
2017-08-19T07:20:25.766Z,1008.61
2017-08-19T07:21:25.792Z,1008.62
2017-08-19T07:22:25.721Z,1008.57
2017-08-19T07:23:25.704Z,1008.64
2017-08-19T07:24:25.685Z,1008.59
2017-08-19T07:25:25.675Z,1008.59
2017-08-19T07:26:25.651Z,1008.6
2017-08-19T07:27:25.630Z,1008.55
2017-08-19T07:28:25.610Z,1008.63
2017-08-19T07:29:25.589Z,1008.56
2017-08-19T07:30:25.570Z,1008.62
2017-08-19T07:31:25.550Z,1008.64
2017-08-19T07:32:25.531Z,1008.63
2017-08-19T07:33:25.516Z,1008.61
2017-08-19T07:34:25.492Z,1008.67
2017-08-19T07:35:25.472Z,1008.67
2017-08-19T07:36:25.452Z,1008.77
2017-08-19T07:37:25.433Z,1008.68
2017-08-19T07:38:25.416Z,1008.66
2017-08-19T07:39:25.393Z,1008.76
2017-08-19T07:40:25.375Z,1008.67
2017-08-19T07:41:25.357Z,1008.73
2017-08-19T07:42:25.332Z,1008.78
2017-08-19T07:43:25.314Z,1008.8
2017-08-19T07:44:25.296Z,1008.83
2017-08-19T07:45:25.275Z,1008.84
2017-08-19T07:46:25.304Z,1008.83
2017-08-19T07:47:25.235Z,1008.8
2017-08-19T07:48:25.218Z,1008.77
2017-08-19T07:49:25.195Z,1008.82
2017-08-19T07:50:25.174Z,1008.82
2017-08-19T07:51:25.155Z,1008.78
2017-08-19T07:52:25.135Z,1008.84
2017-08-19T07:53:25.116Z,1008.79
2017-08-19T07:54:25.095Z,1008.77
2017-08-19T07:55:25.074Z,1008.75
2017-08-19T07:56:25.056Z,1008.75
2017-08-19T07:57:25.033Z,1008.73
2017-08-19T07:58:25.014Z,1008.72
2017-08-19T07:59:24.991Z,1008.72
2017-08-19T08:00:25.024Z,1008.79
2017-08-19T08:01:24.951Z,1008.7
2017-08-19T08:02:24.934Z,1008.71
2017-08-19T08:03:24.913Z,1008.78
2017-08-19T08:04:24.893Z,1008.78
2017-08-19T08:05:24.875Z,1008.86
2017-08-19T08:06:24.854Z,1008.81
2017-08-19T08:07:24.835Z,1008.82
2017-08-19T08:08:24.816Z,1008.86
2017-08-19T08:09:24.796Z,1008.89
2017-08-19T08:10:24.777Z,1008.89
2017-08-19T08:11:24.756Z,1008.86
2017-08-19T08:12:24.737Z,1008.9
2017-08-19T08:13:24.722Z,1008.88
2017-08-19T08:14:24.696Z,1008.9
2017-08-19T08:15:24.677Z,1008.93
2017-08-19T08:16:24.665Z,1008.89
2017-08-19T08:17:24.639Z,1008.88
2017-08-19T08:18:24.621Z,1008.9
2017-08-19T08:19:24.600Z,1008.95
2017-08-19T08:20:24.583Z,1008.99
2017-08-19T08:21:24.558Z,1009.01
2017-08-19T08:22:24.542Z,1009.05
2017-08-19T08:23:24.524Z,1009.04
2017-08-19T08:24:24.508Z,1009.05
2017-08-19T08:25:24.483Z,1009.01
2017-08-19T08:26:24.468Z,1009.1
2017-08-19T08:27:24.449Z,1009.11
2017-08-19T08:28:24.432Z,1009.08
2017-08-19T08:29:24.414Z,1009.12
2017-08-19T08:30:24.389Z,1009.17
2017-08-19T08:31:24.375Z,1009.1
2017-08-19T08:32:24.349Z,1009.22
2017-08-19T08:33:24.329Z,1009.19
2017-08-19T08:34:24.308Z,1009.2
2017-08-19T08:35:24.289Z,1009.18
2017-08-19T08:36:24.266Z,1009.25
2017-08-19T08:37:24.248Z,1009.18
2017-08-19T08:38:24.229Z,1009.21
2017-08-19T08:39:24.208Z,1009.28
2017-08-19T08:40:24.189Z,1009.24
2017-08-19T08:41:24.170Z,1009.28
2017-08-19T08:42:24.150Z,1009.27
2017-08-19T08:43:24.129Z,1009.29
2017-08-19T08:44:24.111Z,1009.32
2017-08-19T08:45:24.093Z,1009.32
2017-08-19T08:46:24.070Z,1009.25
2017-08-19T08:47:24.053Z,1009.32
2017-08-19T08:48:24.028Z,1009.28
2017-08-19T08:49:24.010Z,1009.23
2017-08-19T08:50:23.989Z,1009.28
2017-08-19T08:51:23.968Z,1009.21
2017-08-19T08:52:23.950Z,1009.27
2017-08-19T08:53:23.931Z,1009.3
2017-08-19T08:54:23.910Z,1009.37
2017-08-19T08:55:23.890Z,1009.28
2017-08-19T08:56:23.872Z,1009.26
2017-08-19T08:57:23.856Z,1009.31
2017-08-19T08:58:23.831Z,1009.3
2017-08-19T08:59:23.809Z,1009.24
2017-08-19T09:00:23.791Z,1009.17
2017-08-19T09:01:23.785Z,1009.27
2017-08-19T09:02:23.749Z,1009.28
2017-08-19T09:03:23.737Z,1009.24
2017-08-19T09:04:23.710Z,1009.31
2017-08-19T09:05:23.695Z,1009.3
2017-08-19T09:06:23.680Z,1009.21
2017-08-19T09:07:23.704Z,1009.2
2017-08-19T09:08:23.637Z,1009.27
2017-08-19T09:09:23.617Z,1009.22
2017-08-19T09:10:23.604Z,1009.26
2017-08-19T09:11:23.582Z,1009.25
2017-08-19T09:12:23.565Z,1009.23
2017-08-19T09:13:23.548Z,1009.19
2017-08-19T09:14:23.533Z,1009.19
2017-08-19T09:15:23.518Z,1009.22
2017-08-19T09:16:23.502Z,1009.19
2017-08-19T09:17:23.485Z,1009.19
2017-08-19T09:18:23.473Z,1009.28
2017-08-19T09:19:23.458Z,1009.24
2017-08-19T09:20:23.443Z,1009.26
2017-08-19T09:21:23.429Z,1009.26
2017-08-19T09:22:23.411Z,1009.18
2017-08-19T09:23:23.396Z,1009.28
2017-08-19T09:24:23.379Z,1009.28
2017-08-19T09:25:23.368Z,1009.36
2017-08-19T09:26:23.349Z,1009.36
2017-08-19T09:27:23.330Z,1009.33
2017-08-19T09:28:23.317Z,1009.37
2017-08-19T09:29:23.301Z,1009.37
2017-08-19T09:30:23.284Z,1009.38
2017-08-19T09:31:23.267Z,1009.34
2017-08-19T09:32:23.248Z,1009.4
2017-08-19T09:33:23.229Z,1009.45
2017-08-19T09:34:23.212Z,1009.47
2017-08-19T09:35:23.194Z,1009.46
2017-08-19T09:36:23.185Z,1009.43
2017-08-19T09:37:23.160Z,1009.4
2017-08-19T09:38:23.141Z,1009.45
2017-08-19T09:39:23.124Z,1009.46
2017-08-19T09:40:23.106Z,1009.43
2017-08-19T09:41:23.086Z,1009.46
2017-08-19T09:42:23.068Z,1009.4
2017-08-19T09:43:23.052Z,1009.41
2017-08-19T09:44:23.031Z,1009.4
2017-08-19T09:45:23.012Z,1009.39
2017-08-19T09:46:22.993Z,1009.44
2017-08-19T09:47:22.979Z,1009.45
2017-08-19T09:48:22.958Z,1009.44
2017-08-19T09:49:22.937Z,1009.49
2017-08-19T09:50:22.918Z,1009.46
2017-08-19T09:51:22.901Z,1009.43
2017-08-19T09:52:22.880Z,1009.49
2017-08-19T09:53:22.862Z,1009.53
2017-08-19T09:54:22.843Z,1009.49
2017-08-19T09:55:22.830Z,1009.5
2017-08-19T09:56:22.806Z,1009.48
2017-08-19T09:57:22.788Z,1009.52
2017-08-19T09:58:22.771Z,1009.57
2017-08-19T09:59:22.751Z,1009.55
2017-08-19T10:00:22.732Z,1009.57
2017-08-19T10:01:22.715Z,1009.6
2017-08-19T10:02:22.695Z,1009.58
2017-08-19T10:03:22.674Z,1009.61
2017-08-19T10:04:22.659Z,1009.59
2017-08-19T10:05:22.642Z,1009.66
2017-08-19T10:06:22.622Z,1009.64
2017-08-19T10:07:22.603Z,1009.61
2017-08-19T10:08:22.589Z,1009.57
2017-08-19T10:09:22.574Z,1009.64
2017-08-19T10:10:22.549Z,1009.6
2017-08-19T10:11:22.532Z,1009.67
2017-08-19T10:12:22.515Z,1009.65
2017-08-19T10:13:22.496Z,1009.69
2017-08-19T10:14:22.479Z,1009.64
2017-08-19T10:15:22.462Z,1009.63
2017-08-19T10:16:22.446Z,1009.68
2017-08-19T10:17:22.430Z,1009.76
2017-08-19T10:18:22.410Z,1009.65
2017-08-19T10:19:22.392Z,1009.7
2017-08-19T10:20:22.374Z,1009.66
2017-08-19T10:21:22.360Z,1009.68
2017-08-19T10:22:22.349Z,1009.69
2017-08-19T10:23:22.325Z,1009.75
2017-08-19T10:24:22.314Z,1009.75
2017-08-19T10:25:22.291Z,1009.77
2017-08-19T10:26:22.276Z,1009.69
2017-08-19T10:27:22.260Z,1009.72
2017-08-19T10:28:22.246Z,1009.76
2017-08-19T10:29:22.225Z,1009.8
2017-08-19T10:30:22.213Z,1009.83
2017-08-19T10:31:22.191Z,1009.82
2017-08-19T10:32:22.179Z,1009.82
2017-08-19T10:33:22.156Z,1009.78
2017-08-19T10:34:22.142Z,1009.77
2017-08-19T10:35:22.131Z,1009.76
2017-08-19T10:36:22.109Z,1009.73
2017-08-19T10:37:22.101Z,1009.75
2017-08-19T10:38:22.083Z,1009.76
2017-08-19T10:39:22.066Z,1009.73
2017-08-19T10:40:22.049Z,1009.71
2017-08-19T10:41:22.034Z,1009.73
2017-08-19T10:42:22.017Z,1009.78
2017-08-19T10:43:22.007Z,1009.76
2017-08-19T10:44:21.986Z,1009.75
2017-08-19T10:45:21.972Z,1009.76
2017-08-19T10:46:21.955Z,1009.75
2017-08-19T10:47:21.938Z,1009.68
2017-08-19T10:48:21.925Z,1009.74
2017-08-19T10:49:21.909Z,1009.65
2017-08-19T10:50:21.893Z,1009.68
2017-08-19T10:51:21.872Z,1009.61
2017-08-19T10:52:21.856Z,1009.63
2017-08-19T10:53:21.843Z,1009.65
2017-08-19T10:54:21.823Z,1009.63
2017-08-19T10:55:21.809Z,1009.7
2017-08-19T10:56:21.790Z,1009.71
2017-08-19T10:57:21.774Z,1009.65
2017-08-19T10:58:21.761Z,1009.64
2017-08-19T10:59:21.750Z,1009.66
2017-08-19T11:00:21.724Z,1009.64
2017-08-19T11:01:21.705Z,1009.64
2017-08-19T11:02:21.688Z,1009.66
2017-08-19T11:03:21.723Z,1009.59
2017-08-19T11:04:21.654Z,1009.59
2017-08-19T11:05:21.633Z,1009.66
2017-08-19T11:06:21.617Z,1009.61
2017-08-19T11:07:21.598Z,1009.6
2017-08-19T11:08:21.583Z,1009.58
2017-08-19T11:09:21.561Z,1009.6
2017-08-19T11:10:21.545Z,1009.57
2017-08-19T11:11:21.528Z,1009.57
2017-08-19T11:12:21.508Z,1009.58
2017-08-19T11:13:21.491Z,1009.55
2017-08-19T11:14:21.474Z,1009.6
2017-08-19T11:15:21.458Z,1009.65
2017-08-19T11:16:21.438Z,1009.62
2017-08-19T11:17:21.420Z,1009.61
2017-08-19T11:18:21.405Z,1009.71
2017-08-19T11:19:21.386Z,1009.71
2017-08-19T11:20:21.370Z,1009.69
2017-08-19T11:21:21.353Z,1009.75
2017-08-19T11:22:21.334Z,1009.79
2017-08-19T11:23:21.316Z,1009.78
2017-08-19T11:24:21.305Z,1009.76
2017-08-19T11:25:21.531Z,1009.78
2017-08-19T11:26:21.269Z,1009.79
2017-08-19T11:27:21.246Z,1009.82
2017-08-19T11:28:21.234Z,1009.84
2017-08-19T11:29:21.215Z,1009.88
2017-08-19T11:30:21.198Z,1009.93
2017-08-19T11:31:21.177Z,1009.85
2017-08-19T11:32:21.164Z,1009.94
2017-08-19T11:33:21.144Z,1009.94
2017-08-19T11:34:21.128Z,1009.95
2017-08-19T11:35:21.112Z,1010
2017-08-19T11:36:21.093Z,1010.08
2017-08-19T11:37:21.075Z,1009.99
2017-08-19T11:38:21.059Z,1010
2017-08-19T11:39:21.045Z,1009.98
2017-08-19T11:40:21.025Z,1009.96
2017-08-19T11:41:21.058Z,1009.97
2017-08-19T11:42:20.989Z,1009.99
2017-08-19T11:43:20.973Z,1009.96
2017-08-19T11:44:20.955Z,1010
2017-08-19T11:45:20.942Z,1009.94
2017-08-19T11:46:20.925Z,1009.91
2017-08-19T11:47:20.909Z,1009.93
2017-08-19T11:48:20.888Z,1009.96
2017-08-19T11:49:20.871Z,1009.98
2017-08-19T11:50:20.854Z,1010.06
2017-08-19T11:51:20.836Z,1010.03
2017-08-19T11:52:20.819Z,1010.05
2017-08-19T11:53:20.806Z,1010.07
2017-08-19T11:54:20.785Z,1010.08
2017-08-19T11:55:20.768Z,1010.07
2017-08-19T11:56:20.752Z,1010.2
2017-08-19T11:57:20.735Z,1010.09
2017-08-19T11:58:20.722Z,1010.08
2017-08-19T11:59:20.700Z,1010.08
2017-08-19T12:00:20.933Z,1010.11
2017-08-19T12:01:20.664Z,1010.16
2017-08-19T12:02:20.647Z,1010.16
2017-08-19T12:03:20.633Z,1010.1
2017-08-19T12:04:20.663Z,1010.12
2017-08-19T12:05:20.592Z,1010.04
2017-08-19T12:06:20.578Z,1010.09
2017-08-19T12:07:20.563Z,1010.1
2017-08-19T12:08:20.547Z,1010.08